sensor_id;sensor_type;location;lat;lon;timestamp;pressure;altitude;pressure_sealevel;temperature;humidity
71907;BME280;59781;52.090;5.030;2023-07-16T00:00:11;100727.03;;;17.17;100.00
71907;BME280;59781;52.090;5.030;2023-07-16T00:02:38;100721.31;;;17.32;100.00
71907;BME280;59781;52.090;5.030;2023-07-16T00:05:04;100722.25;;;17.13;100.00
71907;BME280;59781;52.090;5.030;2023-07-16T00:07:31;100722.16;;;17.26;100.00
71907;BME280;59781;52.090;5.030;2023-07-16T00:09:57;100721.03;;;17.40;100.00
71907;BME280;59781;52.090;5.030;2023-07-16T00:12:22;100712.34;;;17.57;100.00
71907;BME280;59781;52.090;5.030;2023-07-16T00:14:48;100726.22;;;17.48;100.00
71907;BME280;59781;52.090;5.030;2023-07-16T00:17:14;100712.56;;;17.55;100.00
71907;BME280;59781;52.090;5.030;2023-07-16T00:19:40;100724.03;;;17.32;100.00
71907;BME280;59781;52.090;5.030;2023-07-16T00:22:05;100716.78;;;17.51;100.00
71907;BME280;59781;52.090;5.030;2023-07-16T00:24:31;100720.41;;;17.38;100.00
71907;BME280;59781;52.090;5.030;2023-07-16T00:26:57;100715.72;;;17.52;100.00
71907;BME280;59781;52.090;5.030;2023-07-16T00:29:23;100720.16;;;17.46;100.00
71907;BME280;59781;52.090;5.030;2023-07-16T00:31:49;100716.94;;;17.56;100.00
71907;BME280;59781;52.090;5.030;2023-07-16T00:34:14;100725.84;;;17.76;100.00
71907;BME280;59781;52.090;5.030;2023-07-16T00:36:40;100724.19;;;17.69;100.00
71907;BME280;59781;52.090;5.030;2023-07-16T00:39:06;100726.91;;;17.37;100.00
71907;BME280;59781;52.090;5.030;2023-07-16T00:41:32;100722.75;;;17.66;100.00
71907;BME280;59781;52.090;5.030;2023-07-16T00:43:58;100735.13;;;17.31;100.00
71907;BME280;59781;52.090;5.030;2023-07-16T00:46:24;100737.44;;;17.27;100.00
71907;BME280;59781;52.090;5.030;2023-07-16T00:48:50;100739.63;;;17.12;100.00
71907;BME280;59781;52.090;5.030;2023-07-16T00:51:17;100733.72;;;17.22;100.00
71907;BME280;59781;52.090;5.030;2023-07-16T00:53:44;100737.25;;;17.60;100.00
71907;BME280;59781;52.090;5.030;2023-07-16T00:56:16;100741.44;;;17.25;100.00
71907;BME280;59781;52.090;5.030;2023-07-16T00:58:46;100744.16;;;17.25;100.00
71907;BME280;59781;52.090;5.030;2023-07-16T01:01:12;100739.50;;;16.94;100.00
71907;BME280;59781;52.090;5.030;2023-07-16T01:03:38;100741.06;;;17.14;100.00
71907;BME280;59781;52.090;5.030;2023-07-16T01:06:13;100739.91;;;16.90;100.00
71907;BME280;59781;52.090;5.030;2023-07-16T01:11:59;100740.00;;;17.22;100.00
71907;BME280;59781;52.090;5.030;2023-07-16T01:14:27;100743.78;;;17.14;100.00
71907;BME280;59781;52.090;5.030;2023-07-16T01:16:54;100738.38;;;17.46;100.00
71907;BME280;59781;52.090;5.030;2023-07-16T01:19:25;100737.97;;;17.11;100.00
71907;BME280;59781;52.090;5.030;2023-07-16T01:24:59;100732.22;;;17.26;100.00
71907;BME280;59781;52.090;5.030;2023-07-16T01:28:10;100738.94;;;17.23;100.00
71907;BME280;59781;52.090;5.030;2023-07-16T01:30:51;100737.75;;;17.51;100.00
71907;BME280;59781;52.090;5.030;2023-07-16T01:33:20;100730.91;;;17.35;100.00
71907;BME280;59781;52.090;5.030;2023-07-16T01:35:48;100742.84;;;17.40;100.00
71907;BME280;59781;52.090;5.030;2023-07-16T01:38:16;100737.50;;;17.14;100.00
71907;BME280;59781;52.090;5.030;2023-07-16T01:40:44;100726.88;;;17.44;100.00
71907;BME280;59781;52.090;5.030;2023-07-16T01:43:10;100742.28;;;17.25;100.00
71907;BME280;59781;52.090;5.030;2023-07-16T01:45:35;100744.28;;;16.98;100.00
71907;BME280;59781;52.090;5.030;2023-07-16T01:48:36;100744.38;;;17.23;100.00
71907;BME280;59781;52.090;5.030;2023-07-16T01:51:03;100737.06;;;17.24;100.00
71907;BME280;59781;52.090;5.030;2023-07-16T01:53:30;100753.78;;;17.20;100.00
71907;BME280;59781;52.090;5.030;2023-07-16T01:55:57;100747.50;;;17.20;100.00
71907;BME280;59781;52.090;5.030;2023-07-16T01:58:23;100749.75;;;17.36;100.00
71907;BME280;59781;52.090;5.030;2023-07-16T02:00:50;100750.44;;;17.25;100.00
71907;BME280;59781;52.090;5.030;2023-07-16T02:03:16;100749.28;;;17.46;100.00
71907;BME280;59781;52.090;5.030;2023-07-16T02:05:41;100747.22;;;17.41;100.00
71907;BME280;59781;52.090;5.030;2023-07-16T02:08:09;100747.09;;;17.23;100.00
71907;BME280;59781;52.090;5.030;2023-07-16T02:10:34;100739.47;;;17.38;100.00
71907;BME280;59781;52.090;5.030;2023-07-16T02:13:01;100747.72;;;17.25;100.00
71907;BME280;59781;52.090;5.030;2023-07-16T02:15:26;100752.94;;;17.27;100.00
71907;BME280;59781;52.090;5.030;2023-07-16T02:17:52;100747.31;;;17.22;100.00
71907;BME280;59781;52.090;5.030;2023-07-16T02:20:18;100749.69;;;17.11;100.00
71907;BME280;59781;52.090;5.030;2023-07-16T02:22:43;100750.28;;;17.13;100.00
71907;BME280;59781;52.090;5.030;2023-07-16T02:25:11;100746.63;;;17.33;100.00
71907;BME280;59781;52.090;5.030;2023-07-16T02:27:38;100746.91;;;17.18;100.00
71907;BME280;59781;52.090;5.030;2023-07-16T02:30:04;100741.59;;;17.30;100.00
71907;BME280;59781;52.090;5.030;2023-07-16T02:32:32;100747.31;;;17.22;100.00
71907;BME280;59781;52.090;5.030;2023-07-16T02:35:00;100757.00;;;17.11;100.00
71907;BME280;59781;52.090;5.030;2023-07-16T02:37:27;100750.53;;;16.99;100.00
71907;BME280;59781;52.090;5.030;2023-07-16T02:39:53;100750.28;;;17.13;100.00
71907;BME280;59781;52.090;5.030;2023-07-16T02:42:18;100749.56;;;17.31;100.00
71907;BME280;59781;52.090;5.030;2023-07-16T02:44:44;100750.28;;;17.13;100.00
71907;BME280;59781;52.090;5.030;2023-07-16T02:47:11;100735.16;;;17.24;100.00
71907;BME280;59781;52.090;5.030;2023-07-16T02:49:38;100748.25;;;16.96;100.00
71907;BME280;59781;52.090;5.030;2023-07-16T02:52:04;100750.13;;;17.02;100.00
71907;BME280;59781;52.090;5.030;2023-07-16T02:54:31;100740.47;;;17.06;100.00
71907;BME280;59781;52.090;5.030;2023-07-16T02:56:57;100753.47;;;17.04;100.00
71907;BME280;59781;52.090;5.030;2023-07-16T02:59:23;100762.69;;;16.96;100.00
71907;BME280;59781;52.090;5.030;2023-07-16T03:01:49;100752.78;;;17.15;100.00
71907;BME280;59781;52.090;5.030;2023-07-16T03:04:16;100761.66;;;16.90;100.00
71907;BME280;59781;52.090;5.030;2023-07-16T03:06:41;100757.91;;;16.91;100.00
71907;BME280;59781;52.090;5.030;2023-07-16T03:09:07;100759.84;;;16.71;100.00
71907;BME280;59781;52.090;5.030;2023-07-16T03:11:33;100764.84;;;16.81;100.00
71907;BME280;59781;52.090;5.030;2023-07-16T03:13:58;100769.00;;;16.90;100.00
71907;BME280;59781;52.090;5.030;2023-07-16T03:16:24;100759.53;;;17.06;100.00
71907;BME280;59781;52.090;5.030;2023-07-16T03:18:51;100762.97;;;16.81;100.00
71907;BME280;59781;52.090;5.030;2023-07-16T03:21:16;100762.56;;;16.71;100.00
71907;BME280;59781;52.090;5.030;2023-07-16T03:23:42;100763.81;;;16.82;100.00
71907;BME280;59781;52.090;5.030;2023-07-16T03:26:08;100752.66;;;16.90;100.00
71907;BME280;59781;52.090;5.030;2023-07-16T03:28:34;100764.00;;;16.80;100.00
71907;BME280;59781;52.090;5.030;2023-07-16T03:31:03;100764.25;;;16.72;100.00
71907;BME280;59781;52.090;5.030;2023-07-16T03:33:30;100761.84;;;17.02;100.00
71907;BME280;59781;52.090;5.030;2023-07-16T03:35:56;100774.03;;;16.93;100.00
71907;BME280;59781;52.090;5.030;2023-07-16T03:38:21;100781.75;;;16.96;100.00
71907;BME280;59781;52.090;5.030;2023-07-16T03:40:48;100775.66;;;17.01;100.00
71907;BME280;59781;52.090;5.030;2023-07-16T03:43:16;100783.16;;;17.12;100.00
71907;BME280;59781;52.090;5.030;2023-07-16T03:45:43;100794.06;;;17.12;100.00
71907;BME280;59781;52.090;5.030;2023-07-16T03:48:08;100793.84;;;17.07;100.00
71907;BME280;59781;52.090;5.030;2023-07-16T03:50:36;100804.44;;;17.28;100.00
71907;BME280;59781;52.090;5.030;2023-07-16T03:53:02;100807.59;;;17.25;100.00
71907;BME280;59781;52.090;5.030;2023-07-16T03:55:29;100804.94;;;17.05;100.00
71907;BME280;59781;52.090;5.030;2023-07-16T03:57:55;100812.00;;;17.19;100.00
71907;BME280;59781;52.090;5.030;2023-07-16T04:00:21;100804.97;;;16.99;100.00
71907;BME280;59781;52.090;5.030;2023-07-16T04:02:49;100797.84;;;16.98;100.00
71907;BME280;59781;52.090;5.030;2023-07-16T04:05:17;100803.03;;;17.12;100.00
71907;BME280;59781;52.090;5.030;2023-07-16T04:07:43;100818.69;;;17.24;100.00
71907;BME280;59781;52.090;5.030;2023-07-16T04:10:08;100809.56;;;16.98;100.00
71907;BME280;59781;52.090;5.030;2023-07-16T04:12:34;100816.00;;;17.10;100.00
71907;BME280;59781;52.090;5.030;2023-07-16T04:15:00;100817.72;;;17.11;100.00
71907;BME280;59781;52.090;5.030;2023-07-16T04:17:32;100828.31;;;17.19;100.00
71907;BME280;59781;52.090;5.030;2023-07-16T04:19:57;100828.84;;;16.97;100.00
71907;BME280;59781;52.090;5.030;2023-07-16T04:22:23;100833.22;;;16.91;100.00
71907;BME280;59781;52.090;5.030;2023-07-16T04:24:49;100838.66;;;16.91;100.00
71907;BME280;59781;52.090;5.030;2023-07-16T04:27:14;100823.00;;;16.80;100.00
71907;BME280;59781;52.090;5.030;2023-07-16T04:29:40;100828.00;;;16.89;100.00
71907;BME280;59781;52.090;5.030;2023-07-16T04:32:06;100824.66;;;16.94;100.00
71907;BME280;59781;52.090;5.030;2023-07-16T04:34:31;100830.53;;;16.84;100.00
71907;BME280;59781;52.090;5.030;2023-07-16T04:36:57;100838.25;;;16.87;100.00
71907;BME280;59781;52.090;5.030;2023-07-16T04:39:23;100831.28;;;17.18;100.00
71907;BME280;59781;52.090;5.030;2023-07-16T04:41:48;100838.19;;;17.14;100.00
71907;BME280;59781;52.090;5.030;2023-07-16T04:44:14;100843.59;;;17.20;100.00
71907;BME280;59781;52.090;5.030;2023-07-16T04:46:40;100841.97;;;17.13;100.00
71907;BME280;59781;52.090;5.030;2023-07-16T04:49:06;100843.19;;;17.24;100.00
71907;BME280;59781;52.090;5.030;2023-07-16T04:51:31;100841.75;;;17.21;100.00
71907;BME280;59781;52.090;5.030;2023-07-16T04:53:57;100837.91;;;17.35;100.00
71907;BME280;59781;52.090;5.030;2023-07-16T04:56:23;100837.00;;;17.48;100.00
71907;BME280;59781;52.090;5.030;2023-07-16T04:58:49;100836.22;;;17.41;100.00
71907;BME280;59781;52.090;5.030;2023-07-16T05:01:14;100834.59;;;17.27;100.00
71907;BME280;59781;52.090;5.030;2023-07-16T05:03:40;100833.81;;;17.71;100.00
71907;BME280;59781;52.090;5.030;2023-07-16T05:06:06;100834.78;;;17.83;100.00
71907;BME280;59781;52.090;5.030;2023-07-16T05:08:31;100852.03;;;17.64;100.00
71907;BME280;59781;52.090;5.030;2023-07-16T05:10:57;100852.88;;;17.64;100.00
71907;BME280;59781;52.090;5.030;2023-07-16T05:13:24;100852.88;;;17.71;100.00
71907;BME280;59781;52.090;5.030;2023-07-16T05:15:50;100848.03;;;17.73;100.00
71907;BME280;59781;52.090;5.030;2023-07-16T05:18:16;100851.94;;;17.84;100.00
71907;BME280;59781;52.090;5.030;2023-07-16T05:20:42;100856.13;;;17.86;100.00
71907;BME280;59781;52.090;5.030;2023-07-16T05:23:09;100855.16;;;17.74;100.00
71907;BME280;59781;52.090;5.030;2023-07-16T05:25:35;100859.69;;;18.18;100.00
71907;BME280;59781;52.090;5.030;2023-07-16T05:28:01;100868.56;;;18.39;100.00
71907;BME280;59781;52.090;5.030;2023-07-16T05:30:27;100869.94;;;18.48;100.00
71907;BME280;59781;52.090;5.030;2023-07-16T05:32:52;100869.06;;;18.29;100.00
71907;BME280;59781;52.090;5.030;2023-07-16T05:35:18;100871.63;;;18.74;100.00
71907;BME280;59781;52.090;5.030;2023-07-16T05:37:44;100868.56;;;19.07;100.00
71907;BME280;59781;52.090;5.030;2023-07-16T05:40:10;100871.47;;;19.30;100.00
71907;BME280;59781;52.090;5.030;2023-07-16T05:42:36;100872.06;;;19.14;100.00
71907;BME280;59781;52.090;5.030;2023-07-16T05:45:02;100867.97;;;19.41;100.00
71907;BME280;59781;52.090;5.030;2023-07-16T05:47:27;100877.16;;;19.65;100.00
71907;BME280;59781;52.090;5.030;2023-07-16T05:49:53;100877.59;;;19.26;100.00
71907;BME280;59781;52.090;5.030;2023-07-16T05:52:19;100876.09;;;19.66;100.00
71907;BME280;59781;52.090;5.030;2023-07-16T05:54:44;100871.78;;;19.40;100.00
71907;BME280;59781;52.090;5.030;2023-07-16T05:57:10;100894.25;;;19.61;100.00
71907;BME280;59781;52.090;5.030;2023-07-16T05:59:36;100884.50;;;19.46;100.00
71907;BME280;59781;52.090;5.030;2023-07-16T06:02:03;100890.09;;;19.58;100.00
71907;BME280;59781;52.090;5.030;2023-07-16T06:04:30;100880.81;;;19.59;100.00
71907;BME280;59781;52.090;5.030;2023-07-16T06:06:56;100894.75;;;19.51;100.00
71907;BME280;59781;52.090;5.030;2023-07-16T06:09:22;100885.28;;;19.72;100.00
71907;BME280;59781;52.090;5.030;2023-07-16T06:11:49;100887.16;;;19.53;100.00
71907;BME280;59781;52.090;5.030;2023-07-16T06:14:15;100889.88;;;20.20;100.00
71907;BME280;59781;52.090;5.030;2023-07-16T06:16:42;100901.81;;;20.37;100.00
71907;BME280;59781;52.090;5.030;2023-07-16T06:19:07;100878.16;;;20.01;100.00
71907;BME280;59781;52.090;5.030;2023-07-16T06:21:33;100893.00;;;20.05;100.00
71907;BME280;59781;52.090;5.030;2023-07-16T06:23:59;100901.56;;;19.97;100.00
71907;BME280;59781;52.090;5.030;2023-07-16T06:26:25;100895.63;;;20.00;100.00
71907;BME280;59781;52.090;5.030;2023-07-16T06:28:51;100903.63;;;20.13;100.00
71907;BME280;59781;52.090;5.030;2023-07-16T06:31:17;100910.44;;;20.22;100.00
71907;BME280;59781;52.090;5.030;2023-07-16T06:33:43;100904.50;;;20.67;100.00
71907;BME280;59781;52.090;5.030;2023-07-16T06:36:12;100913.38;;;20.09;100.00
71907;BME280;59781;52.090;5.030;2023-07-16T06:38:38;100903.72;;;20.37;100.00
71907;BME280;59781;52.090;5.030;2023-07-16T06:41:04;100911.75;;;20.73;100.00
71907;BME280;59781;52.090;5.030;2023-07-16T06:43:30;100913.22;;;20.87;100.00
71907;BME280;59781;52.090;5.030;2023-07-16T06:45:56;100922.94;;;20.60;100.00
71907;BME280;59781;52.090;5.030;2023-07-16T06:48:22;100925.91;;;20.47;100.00
71907;BME280;59781;52.090;5.030;2023-07-16T06:50:50;100925.09;;;20.28;100.00
71907;BME280;59781;52.090;5.030;2023-07-16T06:53:15;100932.69;;;20.26;100.00
71907;BME280;59781;52.090;5.030;2023-07-16T06:55:41;100938.44;;;20.36;100.00
71907;BME280;59781;52.090;5.030;2023-07-16T06:58:10;100927.09;;;19.72;100.00
71907;BME280;59781;52.090;5.030;2023-07-16T07:00:37;100939.31;;;19.88;100.00
71907;BME280;59781;52.090;5.030;2023-07-16T07:03:02;100953.59;;;20.20;100.00
71907;BME280;59781;52.090;5.030;2023-07-16T07:05:28;100937.25;;;19.84;100.00
71907;BME280;59781;52.090;5.030;2023-07-16T07:07:54;100952.25;;;20.41;100.00
71907;BME280;59781;52.090;5.030;2023-07-16T07:10:20;100942.88;;;21.26;100.00
71907;BME280;59781;52.090;5.030;2023-07-16T07:12:45;100949.78;;;21.40;100.00
71907;BME280;59781;52.090;5.030;2023-07-16T07:15:11;100941.66;;;21.97;100.00
71907;BME280;59781;52.090;5.030;2023-07-16T07:17:37;100940.38;;;21.36;100.00
71907;BME280;59781;52.090;5.030;2023-07-16T07:20:03;100967.13;;;20.99;100.00
71907;BME280;59781;52.090;5.030;2023-07-16T07:22:30;100962.97;;;20.96;100.00
71907;BME280;59781;52.090;5.030;2023-07-16T07:24:56;100974.66;;;21.15;100.00
71907;BME280;59781;52.090;5.030;2023-07-16T07:27:21;100969.25;;;20.13;100.00
71907;BME280;59781;52.090;5.030;2023-07-16T07:29:47;100973.09;;;19.75;100.00
71907;BME280;59781;52.090;5.030;2023-07-16T07:32:19;100987.63;;;19.51;100.00
71907;BME280;59781;52.090;5.030;2023-07-16T07:34:45;100987.16;;;19.17;100.00
71907;BME280;59781;52.090;5.030;2023-07-16T07:37:11;100980.94;;;19.04;100.00
71907;BME280;59781;52.090;5.030;2023-07-16T07:39:37;100988.25;;;19.10;100.00
71907;BME280;59781;52.090;5.030;2023-07-16T07:42:03;100992.84;;;19.77;100.00
71907;BME280;59781;52.090;5.030;2023-07-16T07:44:29;101002.88;;;20.62;100.00
71907;BME280;59781;52.090;5.030;2023-07-16T07:46:54;100992.03;;;21.67;100.00
71907;BME280;59781;52.090;5.030;2023-07-16T07:49:20;101001.31;;;20.84;100.00
71907;BME280;59781;52.090;5.030;2023-07-16T07:51:46;101000.59;;;20.29;100.00
71907;BME280;59781;52.090;5.030;2023-07-16T07:54:14;101000.72;;;20.52;100.00
71907;BME280;59781;52.090;5.030;2023-07-16T07:56:41;100992.75;;;21.16;100.00
71907;BME280;59781;52.090;5.030;2023-07-16T07:59:06;101004.88;;;20.85;100.00
71907;BME280;59781;52.090;5.030;2023-07-16T08:01:33;100999.75;;;20.47;100.00
71907;BME280;59781;52.090;5.030;2023-07-16T08:03:58;101005.88;;;20.72;100.00
71907;BME280;59781;52.090;5.030;2023-07-16T08:06:24;101002.25;;;20.48;100.00
71907;BME280;59781;52.090;5.030;2023-07-16T08:08:51;101006.75;;;22.13;100.00
71907;BME280;59781;52.090;5.030;2023-07-16T08:11:17;101015.00;;;21.90;100.00
71907;BME280;59781;52.090;5.030;2023-07-16T08:13:43;100998.59;;;21.43;100.00
71907;BME280;59781;52.090;5.030;2023-07-16T08:16:08;101005.53;;;22.49;100.00
71907;BME280;59781;52.090;5.030;2023-07-16T08:18:34;101007.47;;;22.09;100.00
71907;BME280;59781;52.090;5.030;2023-07-16T08:21:00;101027.28;;;21.87;100.00
71907;BME280;59781;52.090;5.030;2023-07-16T08:23:26;101021.41;;;20.90;100.00
71907;BME280;59781;52.090;5.030;2023-07-16T08:25:52;101027.00;;;20.35;100.00
71907;BME280;59781;52.090;5.030;2023-07-16T08:28:18;101038.84;;;19.99;100.00
71907;BME280;59781;52.090;5.030;2023-07-16T08:30:46;101032.31;;;20.00;100.00
71907;BME280;59781;52.090;5.030;2023-07-16T08:33:12;101036.41;;;20.27;100.00
71907;BME280;59781;52.090;5.030;2023-07-16T08:35:40;101044.13;;;20.49;100.00
71907;BME280;59781;52.090;5.030;2023-07-16T08:38:06;101041.31;;;20.97;100.00
71907;BME280;59781;52.090;5.030;2023-07-16T08:40:38;101019.63;;;20.54;100.00
71907;BME280;59781;52.090;5.030;2023-07-16T08:43:06;101049.94;;;20.82;100.00
71907;BME280;59781;52.090;5.030;2023-07-16T08:45:38;101039.66;;;21.08;100.00
71907;BME280;59781;52.090;5.030;2023-07-16T08:48:10;101046.41;;;21.59;100.00
71907;BME280;59781;52.090;5.030;2023-07-16T08:50:37;101046.53;;;22.27;100.00
71907;BME280;59781;52.090;5.030;2023-07-16T08:53:07;101045.16;;;21.90;100.00
71907;BME280;59781;52.090;5.030;2023-07-16T08:55:34;101040.91;;;21.59;100.00
71907;BME280;59781;52.090;5.030;2023-07-16T08:58:05;101045.69;;;21.28;100.00
71907;BME280;59781;52.090;5.030;2023-07-16T09:00:31;101051.44;;;21.08;100.00
71907;BME280;59781;52.090;5.030;2023-07-16T09:02:59;101050.34;;;20.56;100.00
71907;BME280;59781;52.090;5.030;2023-07-16T09:05:25;101062.81;;;20.52;100.00
71907;BME280;59781;52.090;5.030;2023-07-16T09:07:51;101061.66;;;20.41;100.00
71907;BME280;59781;52.090;5.030;2023-07-16T09:10:17;101070.56;;;20.85;100.00
71907;BME280;59781;52.090;5.030;2023-07-16T09:12:44;101063.13;;;20.44;100.00
71907;BME280;59781;52.090;5.030;2023-07-16T09:15:16;101067.06;;;21.08;100.00
71907;BME280;59781;52.090;5.030;2023-07-16T09:17:47;101058.31;;;21.64;100.00
71907;BME280;59781;52.090;5.030;2023-07-16T09:20:17;101057.34;;;21.70;100.00
71907;BME280;59781;52.090;5.030;2023-07-16T09:22:44;101073.56;;;23.55;100.00
71907;BME280;59781;52.090;5.030;2023-07-16T09:25:11;101052.56;;;22.98;99.80
71907;BME280;59781;52.090;5.030;2023-07-16T09:27:36;101068.19;;;22.41;100.00
71907;BME280;59781;52.090;5.030;2023-07-16T09:30:06;101069.63;;;21.56;100.00
71907;BME280;59781;52.090;5.030;2023-07-16T09:32:34;101076.47;;;21.24;100.00
71907;BME280;59781;52.090;5.030;2023-07-16T09:35:09;101088.50;;;21.23;100.00
71907;BME280;59781;52.090;5.030;2023-07-16T09:37:39;101074.34;;;20.84;100.00
71907;BME280;59781;52.090;5.030;2023-07-16T09:40:07;101086.28;;;21.43;100.00
71907;BME280;59781;52.090;5.030;2023-07-16T09:42:43;101092.13;;;20.93;100.00
71907;BME280;59781;52.090;5.030;2023-07-16T09:45:19;101083.47;;;20.66;100.00
71907;BME280;59781;52.090;5.030;2023-07-16T09:47:45;101097.53;;;21.11;100.00
71907;BME280;59781;52.090;5.030;2023-07-16T09:50:11;101100.63;;;21.80;100.00
71907;BME280;59781;52.090;5.030;2023-07-16T09:52:37;101102.53;;;21.44;100.00
71907;BME280;59781;52.090;5.030;2023-07-16T09:55:08;101109.44;;;22.05;100.00
71907;BME280;59781;52.090;5.030;2023-07-16T09:57:41;101107.47;;;22.41;100.00
71907;BME280;59781;52.090;5.030;2023-07-16T10:00:13;101091.91;;;21.36;100.00
71907;BME280;59781;52.090;5.030;2023-07-16T10:02:43;101101.06;;;21.00;100.00
71907;BME280;59781;52.090;5.030;2023-07-16T10:05:18;101107.47;;;20.94;100.00
71907;BME280;59781;52.090;5.030;2023-07-16T10:07:59;101117.06;;;21.45;100.00
71907;BME280;59781;52.090;5.030;2023-07-16T10:10:43;101116.44;;;21.43;100.00
71907;BME280;59781;52.090;5.030;2023-07-16T10:13:12;101113.72;;;21.66;100.00
71907;BME280;59781;52.090;5.030;2023-07-16T10:15:39;101111.34;;;21.82;100.00
71907;BME280;59781;52.090;5.030;2023-07-16T10:18:49;101122.44;;;21.75;100.00
71907;BME280;59781;52.090;5.030;2023-07-16T10:21:23;101130.03;;;21.50;100.00
71907;BME280;59781;52.090;5.030;2023-07-16T10:23:58;101109.59;;;23.08;100.00
71907;BME280;59781;52.090;5.030;2023-07-16T10:26:28;101117.63;;;23.26;97.02
71907;BME280;59781;52.090;5.030;2023-07-16T10:28:55;101127.53;;;22.70;100.00
71907;BME280;59781;52.090;5.030;2023-07-16T10:31:22;101125.88;;;22.05;100.00
71907;BME280;59781;52.090;5.030;2023-07-16T10:34:00;101131.16;;;22.07;100.00
71907;BME280;59781;52.090;5.030;2023-07-16T10:36:26;101132.00;;;22.08;100.00
71907;BME280;59781;52.090;5.030;2023-07-16T10:38:52;101121.34;;;22.11;100.00
71907;BME280;59781;52.090;5.030;2023-07-16T10:41:17;101136.00;;;21.70;100.00
71907;BME280;59781;52.090;5.030;2023-07-16T10:43:43;101156.03;;;21.59;100.00
71907;BME280;59781;52.090;5.030;2023-07-16T10:46:09;101141.97;;;21.55;100.00
71907;BME280;59781;52.090;5.030;2023-07-16T10:48:35;101155.72;;;23.06;100.00
71907;BME280;59781;52.090;5.030;2023-07-16T10:51:01;101135.69;;;23.39;100.00
71907;BME280;59781;52.090;5.030;2023-07-16T10:53:26;101139.75;;;23.19;97.46
71907;BME280;59781;52.090;5.030;2023-07-16T10:55:53;101155.97;;;22.24;100.00
71907;BME280;59781;52.090;5.030;2023-07-16T10:58:19;101150.31;;;22.82;100.00
71907;BME280;59781;52.090;5.030;2023-07-16T11:00:45;101162.84;;;23.81;99.82
71907;BME280;59781;52.090;5.030;2023-07-16T11:03:15;101151.06;;;23.85;91.34
71907;BME280;59781;52.090;5.030;2023-07-16T11:05:45;101171.50;;;23.89;94.78
71907;BME280;59781;52.090;5.030;2023-07-16T11:08:24;101155.56;;;24.30;88.64
71907;BME280;59781;52.090;5.030;2023-07-16T11:10:57;101181.44;;;23.45;91.42
71907;BME280;59781;52.090;5.030;2023-07-16T11:13:31;101166.34;;;24.15;89.68
71907;BME280;59781;52.090;5.030;2023-07-16T11:16:06;101174.16;;;24.01;88.33
71907;BME280;59781;52.090;5.030;2023-07-16T11:18:32;101175.16;;;23.95;92.31
71907;BME280;59781;52.090;5.030;2023-07-16T11:20:59;101170.22;;;23.97;95.18
71907;BME280;59781;52.090;5.030;2023-07-16T11:23:24;101176.59;;;24.36;88.47
71907;BME280;59781;52.090;5.030;2023-07-16T11:25:52;101168.34;;;23.81;93.84
71907;BME280;59781;52.090;5.030;2023-07-16T11:28:18;101179.25;;;22.73;98.52
71907;BME280;59781;52.090;5.030;2023-07-16T11:30:43;101189.13;;;22.86;100.00
71907;BME280;59781;52.090;5.030;2023-07-16T11:33:10;101181.88;;;23.08;96.67
71907;BME280;59781;52.090;5.030;2023-07-16T11:35:38;101182.97;;;23.86;91.30
71907;BME280;59781;52.090;5.030;2023-07-16T11:38:05;101171.03;;;24.53;85.01
71907;BME280;59781;52.090;5.030;2023-07-16T11:40:35;101172.69;;;24.32;91.82
71907;BME280;59781;52.090;5.030;2023-07-16T11:43:11;101171.69;;;24.21;87.27
71907;BME280;59781;52.090;5.030;2023-07-16T11:45:37;101178.00;;;24.00;90.05
71907;BME280;59781;52.090;5.030;2023-07-16T11:48:04;101187.16;;;24.44;89.67
71907;BME280;59781;52.090;5.030;2023-07-16T11:50:30;101182.84;;;24.48;87.00
71907;BME280;59781;52.090;5.030;2023-07-16T11:53:00;101187.78;;;25.17;86.63
71907;BME280;59781;52.090;5.030;2023-07-16T11:55:28;101184.69;;;25.08;83.31
71907;BME280;59781;52.090;5.030;2023-07-16T11:57:54;101185.34;;;25.21;82.98
71907;BME280;59781;52.090;5.030;2023-07-16T12:00:22;101180.16;;;25.24;83.99
71907;BME280;59781;52.090;5.030;2023-07-16T12:02:48;101194.03;;;25.93;81.15
71907;BME280;59781;52.090;5.030;2023-07-16T12:05:18;101182.03;;;25.19;79.50
71907;BME280;59781;52.090;5.030;2023-07-16T12:07:44;101185.78;;;25.07;81.77
71907;BME280;59781;52.090;5.030;2023-07-16T12:10:10;101171.00;;;25.19;86.85
71907;BME280;59781;52.090;5.030;2023-07-16T12:12:39;101191.69;;;25.21;81.19
71907;BME280;59781;52.090;5.030;2023-07-16T12:15:06;101196.63;;;23.98;87.32
71907;BME280;59781;52.090;5.030;2023-07-16T12:17:32;101193.28;;;24.68;84.48
71907;BME280;59781;52.090;5.030;2023-07-16T12:19:58;101193.78;;;24.43;87.13
71907;BME280;59781;52.090;5.030;2023-07-16T12:22:24;101191.50;;;23.85;91.47
71907;BME280;59781;52.090;5.030;2023-07-16T12:24:50;101210.84;;;23.44;95.00
71907;BME280;59781;52.090;5.030;2023-07-16T12:27:16;101200.41;;;23.75;95.39
71907;BME280;59781;52.090;5.030;2023-07-16T12:29:42;101211.91;;;23.89;93.87
71907;BME280;59781;52.090;5.030;2023-07-16T12:32:09;101201.59;;;24.51;88.60
71907;BME280;59781;52.090;5.030;2023-07-16T12:34:35;101191.78;;;24.22;88.14
71907;BME280;59781;52.090;5.030;2023-07-16T12:37:02;101205.50;;;23.66;89.70
71907;BME280;59781;52.090;5.030;2023-07-16T12:39:28;101218.13;;;23.51;90.92
71907;BME280;59781;52.090;5.030;2023-07-16T12:41:54;101217.84;;;23.35;93.00
71907;BME280;59781;52.090;5.030;2023-07-16T12:44:20;101223.00;;;23.77;91.94
71907;BME280;59781;52.090;5.030;2023-07-16T12:46:45;101217.03;;;23.52;94.17